Time;durP1;ratioP1;P1;durP2;ratioP2;P2;SDS_P1;SDS_P2;PMS_P1;PMS_P2;Temp;Humidity;BMP_temperature;BMP_pressure;BME280_temperature;BME280_humidity;BME280_pressure;Samples;Min_cycle;Max_cycle;Signal;HPM_P1;HPM_P2
2022/11/02 00:01:19;;;;;;;3.10;2.47;;;21.90;42.10;;;;;;5069428;28;20536;-72
2022/11/02 00:03:44;;;;;;;2.03;1.90;;;21.90;42.10;;;;;;5082767;28;20225;-71
2022/11/02 00:06:10;;;;;;;3.07;2.80;;;21.90;42.20;;;;;;5077050;28;20461;-72
2022/11/02 00:08:35;;;;;;;2.87;2.50;;;21.90;42.20;;;;;;5073414;28;20227;-72
2022/11/02 00:11:01;;;;;;;2.30;2.10;;;22.00;42.30;;;;;;5064592;28;20240;-72
2022/11/02 00:13:27;;;;;;;2.17;1.97;;;22.00;42.30;;;;;;5069311;28;20699;-72
2022/11/02 00:15:52;;;;;;;3.30;2.40;;;21.90;42.20;;;;;;5074312;28;20310;-72
2022/11/02 00:18:18;;;;;;;2.23;1.97;;;21.90;42.30;;;;;;5069203;28;20209;-72
2022/11/02 00:20:43;;;;;;;4.83;2.30;;;22.00;42.40;;;;;;5070696;28;20233;-72
2022/11/02 00:23:12;;;;;;;2.30;2.20;;;21.90;42.20;;;;;;5072336;28;20228;-72
2022/11/02 00:25:40;;;;;;;3.30;2.30;;;21.90;42.20;;;;;;5071570;28;20697;-72
2022/11/02 00:28:06;;;;;;;3.00;2.03;;;21.90;42.20;;;;;;5074824;28;20457;-72
2022/11/02 00:30:31;;;;;;;3.23;2.37;;;21.90;42.10;;;;;;5071836;28;20449;-72
2022/11/02 00:32:57;;;;;;;3.40;2.23;;;21.90;42.20;;;;;;5079245;28;20797;-72
2022/11/02 00:35:22;;;;;;;2.30;2.10;;;21.90;42.20;;;;;;5072172;28;20241;-72
2022/11/02 00:37:48;;;;;;;3.30;2.40;;;21.90;42.20;;;;;;5069176;28;20686;-72
2022/11/02 00:40:13;;;;;;;2.37;2.17;;;21.90;42.10;;;;;;5074355;28;20222;-72
2022/11/02 00:42:39;;;;;;;2.00;1.80;;;22.00;42.20;;;;;;5066764;28;20224;-72
2022/11/02 00:45:06;;;;;;;4.57;2.33;;;21.90;42.10;;;;;;5063158;28;20235;-72
2022/11/02 00:47:32;;;;;;;1.77;1.67;;;21.90;42.00;;;;;;5064651;28;20323;-72
2022/11/02 00:49:57;;;;;;;2.40;2.10;;;21.90;42.00;;;;;;5071547;28;20475;-72
2022/11/02 00:52:23;;;;;;;2.33;2.13;;;21.90;42.00;;;;;;5064972;28;20237;-72
2022/11/02 00:54:48;;;;;;;2.10;2.00;;;22.00;42.10;;;;;;5072636;28;20290;-72
2022/11/02 00:57:14;;;;;;;2.87;2.03;;;21.90;42.00;;;;;;5067289;28;20939;-72
2022/11/02 00:59:39;;;;;;;2.43;2.23;;;21.90;42.10;;;;;;5069951;28;20568;-72
2022/11/02 01:02:05;;;;;;;2.10;1.80;;;21.90;42.00;;;;;;5072589;28;20241;-72
2022/11/02 01:04:30;;;;;;;1.90;1.80;;;21.90;42.00;;;;;;5071278;28;21312;-72
2022/11/02 01:06:56;;;;;;;1.90;1.70;;;21.90;42.00;;;;;;5069572;28;20687;-72
2022/11/02 01:09:21;;;;;;;2.03;1.80;;;21.90;42.00;;;;;;5071151;28;20290;-72
2022/11/02 01:11:47;;;;;;;2.33;2.23;;;21.90;42.00;;;;;;5076394;28;20205;-72
2022/11/02 01:14:12;;;;;;;1.63;1.53;;;21.90;42.00;;;;;;5067740;28;20215;-72
2022/11/02 01:16:43;;;;;;;2.10;2.00;;;21.90;42.00;;;;;;5080288;28;20228;-72
2022/11/02 01:19:10;;;;;;;1.93;1.50;;;21.90;42.00;;;;;;5077686;28;20223;-72
2022/11/02 01:21:36;;;;;;;1.77;1.67;;;21.90;42.00;;;;;;5072991;28;21940;-72
2022/11/02 01:24:01;;;;;;;2.80;1.83;;;21.90;42.70;;;;;;5070841;28;20441;-72
2022/11/02 01:26:27;;;;;;;1.63;1.53;;;21.90;41.90;;;;;;5069901;28;20526;-72
2022/11/02 01:28:53;;;;;;;1.77;1.67;;;21.90;42.00;;;;;;5072073;28;20693;-72
2022/11/02 01:31:19;;;;;;;1.70;1.60;;;21.90;41.90;;;;;;5073901;28;20678;-72
2022/11/02 01:33:45;;;;;;;1.80;1.67;;;21.90;41.90;;;;;;5080063;28;20477;-72
2022/11/02 01:36:13;;;;;;;2.80;1.80;;;21.90;41.90;;;;;;5070834;28;20240;-72
2022/11/02 01:38:38;;;;;;;1.63;1.53;;;21.90;41.90;;;;;;5070784;28;20849;-72
2022/11/02 01:41:04;;;;;;;2.90;1.77;;;21.90;41.90;;;;;;5071051;28;20454;-72
2022/11/02 01:43:32;;;;;;;2.07;1.80;;;21.90;41.90;;;;;;5071843;28;20220;-72
2022/11/02 01:46:10;;;;;;;2.00;1.80;;;21.90;41.90;;;;;;5067204;28;20221;-72
2022/11/02 01:48:41;;;;;;;1.90;1.80;;;21.90;41.90;;;;;;5071332;28;20445;-72
2022/11/02 01:51:10;;;;;;;1.93;1.80;;;21.90;41.90;;;;;;5059609;28;20454;-72
2022/11/02 01:53:41;;;;;;;1.50;1.40;;;21.90;41.90;;;;;;5066676;28;20465;-72
2022/11/02 01:56:09;;;;;;;2.10;1.90;;;21.90;41.80;;;;;;5079821;28;20527;-72
2022/11/02 01:58:35;;;;;;;2.43;1.40;;;21.90;41.80;;;;;;5068064;28;20955;-72
2022/11/02 02:01:01;;;;;;;1.70;1.60;;;21.90;41.80;;;;;;5072701;28;20466;-72
2022/11/02 02:03:30;;;;;;;1.73;1.63;;;21.90;41.90;;;;;;5064812;28;20744;-72
2022/11/02 02:05:59;;;;;;;2.43;1.70;;;21.90;41.80;;;;;;5060719;28;20617;-72
2022/11/02 02:08:26;;;;;;;1.90;1.60;;;21.90;41.80;;;;;;5069696;28;21086;-72
2022/11/02 02:10:55;;;;;;;4.40;1.40;;;21.90;41.80;;;;;;5072684;28;21475;-72
2022/11/02 02:13:21;;;;;;;1.40;1.30;;;21.90;41.80;;;;;;5066534;28;21432;-72
2022/11/02 02:16:19;;;;;;;3.10;1.70;;;21.90;41.80;;;;;;5069959;28;20519;-72
2022/11/02 02:18:56;;;;;;;1.83;1.70;;;21.90;41.70;;;;;;5076299;28;20469;-71
2022/11/02 02:21:43;;;;;;;1.50;1.40;;;21.90;41.70;;;;;;5077075;28;21049;-72
2022/11/02 02:24:23;;;;;;;3.00;1.97;;;21.90;41.70;;;;;;5074304;28;20461;-72
2022/11/02 02:27:01;;;;;;;1.60;1.43;;;21.90;41.70;;;;;;5066563;28;21069;-72
2022/11/02 02:30:00;;;;;;;1.67;1.33;;;21.90;41.70;;;;;;5065918;28;20479;-72
2022/11/02 02:32:52;;;;;;;2.20;1.50;;;21.90;41.70;;;;;;5074440;28;21005;-72
2022/11/02 02:35:34;;;;;;;1.30;1.20;;;21.80;41.60;;;;;;5076303;28;20830;-72
2022/11/02 02:38:02;;;;;;;1.97;1.50;;;21.80;41.70;;;;;;5075870;28;20546;-72
2022/11/02 02:40:48;;;;;;;2.00;1.70;;;21.80;41.60;;;;;;5076262;28;20453;-72
2022/11/02 02:43:39;;;;;;;1.40;1.30;;;21.90;42.40;;;;;;5072799;28;20465;-72
2022/11/02 02:46:10;;;;;;;1.40;1.30;;;21.90;41.60;;;;;;5073056;28;21206;-71
2022/11/02 02:48:39;;;;;;;1.70;1.60;;;21.90;41.60;;;;;;5068789;28;20532;-72
2022/11/02 02:51:17;;;;;;;1.60;1.50;;;21.80;41.50;;;;;;5072917;28;20469;-72
2022/11/02 02:53:50;;;;;;;2.20;1.30;;;21.80;41.50;;;;;;5070065;28;20461;-72
2022/11/02 02:56:20;;;;;;;1.47;1.37;;;21.80;41.50;;;;;;5074293;28;20473;-72
2022/11/02 02:59:00;;;;;;;1.60;1.50;;;21.80;41.50;;;;;;5069495;28;20466;-72
2022/11/02 03:01:26;;;;;;;1.63;1.53;;;21.80;41.40;;;;;;5064043;28;20461;-72
2022/11/02 03:03:52;;;;;;;2.47;1.70;;;21.80;41.50;;;;;;5079061;28;20461;-72
2022/11/02 03:06:23;;;;;;;2.80;1.67;;;21.80;41.50;;;;;;5079239;28;20530;-72
2022/11/02 03:09:18;;;;;;;1.50;1.30;;;21.80;41.40;;;;;;5079254;28;21867;-72
2022/11/02 03:12:31;;;;;;;2.63;1.70;;;21.80;41.40;;;;;;5076072;28;20461;-72
2022/11/02 03:15:17;;;;;;;1.90;1.40;;;21.80;41.40;;;;;;5071780;28;20460;-72
2022/11/02 03:18:07;;;;;;;4.67;1.50;;;21.80;41.40;;;;;;5071166;28;20445;-71
2022/11/02 03:20:44;;;;;;;3.93;1.40;;;21.80;41.30;;;;;;5074103;28;20484;-72
2022/11/02 03:23:44;;;;;;;1.77;1.10;;;21.80;41.40;;;;;;5057889;28;20468;-72
2022/11/02 03:26:45;;;;;;;1.87;1.77;;;21.80;41.30;;;;;;5077318;28;20790;-72
2022/11/02 03:29:24;;;;;;;2.20;1.53;;;21.80;41.40;;;;;;5073120;28;20442;-72
2022/11/02 03:32:01;;;;;;;1.73;1.23;;;21.80;41.30;;;;;;5076457;28;20943;-72
2022/11/02 03:34:41;;;;;;;2.80;1.50;;;21.80;41.30;;;;;;5077601;28;21042;-71
2022/11/02 03:37:20;;;;;;;2.00;1.40;;;21.80;41.30;;;;;;5073398;28;20987;-72
2022/11/02 03:39:50;;;;;;;1.63;1.40;;;21.80;41.30;;;;;;5066692;28;21005;-72
2022/11/02 03:42:20;;;;;;;1.43;1.27;;;21.80;41.20;;;;;;5075724;27;20464;-72
2022/11/02 03:44:48;;;;;;;1.83;1.47;;;21.80;41.30;;;;;;5076205;27;20460;-72
2022/11/02 03:47:16;;;;;;;1.27;1.17;;;21.80;41.20;;;;;;5077865;28;20860;-72
2022/11/02 03:49:43;;;;;;;1.60;1.30;;;21.80;41.20;;;;;;5078224;28;20440;-72
2022/11/02 03:52:13;;;;;;;1.73;1.40;;;21.80;41.20;;;;;;5077757;28;20445;-72
2022/11/02 03:55:06;;;;;;;1.97;1.57;;;21.80;41.10;;;;;;5070796;28;20492;-72
2022/11/02 03:57:51;;;;;;;1.80;1.30;;;21.80;41.10;;;;;;5071221;28;20495;-72
2022/11/02 04:00:20;;;;;;;1.63;1.40;;;21.80;41.10;;;;;;5073880;28;20456;-72
2022/11/02 04:02:55;;;;;;;2.00;1.43;;;21.80;41.00;;;;;;5088371;27;20462;-72
2022/11/02 04:05:31;;;;;;;2.73;1.80;;;21.80;40.90;;;;;;5070529;28;20469;-72
2022/11/02 04:14:36;;;;;;;1.30;1.20;;;21.80;40.80;;;;;;5078692;28;20851;-72
2022/11/02 04:16:12;;;;;;;2.30;1.37;;;21.80;40.80;;;;;;5063508;28;20469;-72
2022/11/02 04:21:22;;;;;;;1.40;1.30;;;21.80;40.80;;;;;;5070658;28;20477;-72
2022/11/02 04:26:32;;;;;;;1.17;1.07;;;21.80;40.80;;;;;;5073591;28;20588;-72
2022/11/02 04:28:57;;;;;;;1.67;1.37;;;21.80;40.80;;;;;;5063808;28;20473;-73
2022/11/02 04:31:23;;;;;;;1.27;1.17;;;21.80;40.80;;;;;;5070120;28;20224;-72
2022/11/02 04:33:48;;;;;;;1.70;1.30;;;21.80;40.80;;;;;;5070779;28;20216;-72
2022/11/02 04:36:14;;;;;;;1.93;1.30;;;21.80;40.80;;;;;;5070883;28;20224;-72
2022/11/02 04:38:39;;;;;;;1.20;1.10;;;21.80;40.80;;;;;;5067804;28;20241;-72
2022/11/02 04:43:56;;;;;;;1.30;1.20;;;21.80;40.80;;;;;;5071716;28;20228;-72
2022/11/02 04:46:23;;;;;;;1.67;1.10;;;21.80;40.80;;;;;;5076311;28;20458;-71
2022/11/02 04:48:49;;;;;;;1.40;1.20;;;21.70;40.70;;;;;;5071231;28;20291;-72
2022/11/02 04:51:15;;;;;;;1.93;1.40;;;21.80;40.80;;;;;;5061125;28;20454;-72
2022/11/02 04:53:40;;;;;;;1.47;1.37;;;21.80;40.80;;;;;;5065379;28;20277;-72
2022/11/02 04:56:07;;;;;;;1.87;1.20;;;21.80;40.80;;;;;;5069860;28;20217;-72
2022/11/02 04:58:33;;;;;;;1.40;1.30;;;21.80;40.80;;;;;;5064470;28;20225;-72
2022/11/02 05:01:07;;;;;;;1.40;1.13;;;21.80;40.80;;;;;;5066863;28;20526;-72
2022/11/02 05:03:33;;;;;;;1.40;1.30;;;21.80;40.80;;;;;;5075299;28;20315;-72
2022/11/02 05:05:59;;;;;;;2.13;1.40;;;21.80;40.80;;;;;;5074497;28;20470;-72
2022/11/02 05:08:24;;;;;;;1.30;1.20;;;21.80;40.80;;;;;;5070862;28;20554;-72
2022/11/02 05:10:56;;;;;;;1.90;1.50;;;21.80;40.80;;;;;;5068004;28;20208;-72
2022/11/02 05:13:23;;;;;;;1.50;1.40;;;21.80;40.80;;;;;;5059311;28;20442;-72
2022/11/02 05:15:48;;;;;;;1.20;1.10;;;21.80;40.80;;;;;;5066541;28;20477;-72
2022/11/02 05:18:14;;;;;;;2.23;1.30;;;21.80;40.80;;;;;;5077211;28;20456;-72
2022/11/02 05:20:39;;;;;;;1.50;1.40;;;21.80;40.80;;;;;;5073737;28;20229;-71
2022/11/02 05:23:05;;;;;;;1.60;1.40;;;21.80;40.80;;;;;;5076379;28;20330;-71
2022/11/02 05:25:31;;;;;;;1.40;1.30;;;21.80;40.80;;;;;;5074380;28;20274;-72
2022/11/02 05:27:57;;;;;;;2.13;1.30;;;21.80;40.80;;;;;;5074152;28;20350;-72
2022/11/02 05:30:23;;;;;;;1.30;1.10;;;21.80;40.80;;;;;;5073915;28;20544;-72
2022/11/02 05:32:48;;;;;;;2.30;1.30;;;21.80;40.80;;;;;;5077167;28;20720;-71
2022/11/02 05:35:14;;;;;;;2.03;1.63;;;21.90;40.90;;;;;;5068437;28;20239;-70
2022/11/02 05:37:39;;;;;;;1.20;1.00;;;21.90;40.80;;;;;;5073151;28;20581;-73
2022/11/02 05:40:07;;;;;;;2.53;1.63;;;21.90;40.80;;;;;;5071883;28;20285;-68
2022/11/02 05:42:33;;;;;;;1.30;1.20;;;21.90;40.90;;;;;;5076604;28;20588;-69
2022/11/02 05:44:58;;;;;;;1.23;1.10;;;21.90;40.80;;;;;;5077291;28;20458;-70
2022/11/02 05:47:24;;;;;;;1.60;1.40;;;21.90;40.70;;;;;;5080967;28;20217;-70
2022/11/02 05:49:49;;;;;;;1.60;1.50;;;21.90;40.80;;;;;;5070156;28;20216;-70
2022/11/02 05:52:15;;;;;;;2.03;1.50;;;21.90;40.90;;;;;;5080480;28;20270;-71
2022/11/02 05:54:41;;;;;;;1.77;1.47;;;21.90;40.90;;;;;;5078289;28;20262;-70
2022/11/02 05:57:06;;;;;;;2.13;1.20;;;21.90;40.90;;;;;;5069747;28;20235;-70
2022/11/02 05:59:32;;;;;;;2.07;1.37;;;21.90;40.90;;;;;;5078344;28;20224;-70
2022/11/02 06:01:57;;;;;;;1.37;1.27;;;21.90;40.90;;;;;;5062902;28;20220;-70
2022/11/02 06:04:23;;;;;;;1.63;1.33;;;21.90;40.90;;;;;;5071275;28;20233;-70
2022/11/02 06:06:48;;;;;;;1.83;1.30;;;21.90;40.90;;;;;;5075719;28;20227;-70
2022/11/02 06:09:14;;;;;;;1.70;1.60;;;21.90;40.90;;;;;;5054466;28;20230;-71
2022/11/02 06:11:39;;;;;;;1.93;1.30;;;21.90;40.90;;;;;;5070437;28;20235;-71
2022/11/02 06:14:05;;;;;;;1.50;1.40;;;21.90;40.90;;;;;;5040188;28;20351;-71
2022/11/02 06:16:30;;;;;;;1.77;1.57;;;21.90;40.90;;;;;;5057789;28;20358;-70
2022/11/02 06:18:56;;;;;;;3.63;1.50;;;21.90;40.90;;;;;;5073966;28;20227;-69
2022/11/02 06:21:22;;;;;;;1.77;1.27;;;21.90;40.90;;;;;;5074415;28;20750;-72
2022/11/02 06:23:48;;;;;;;2.23;1.37;;;21.90;40.90;;;;;;5065871;28;20714;-69
2022/11/02 06:26:13;;;;;;;1.60;1.10;;;21.90;40.90;;;;;;5075308;28;20224;-70
2022/11/02 06:28:39;;;;;;;1.93;1.10;;;21.90;40.90;;;;;;5056270;28;21520;-71
2022/11/02 06:31:05;;;;;;;2.27;1.03;;;21.90;40.90;;;;;;5068788;28;20231;-69
2022/11/02 06:33:30;;;;;;;1.60;1.50;;;21.90;40.90;;;;;;5070580;28;20216;-69
2022/11/02 06:35:56;;;;;;;1.73;1.17;;;21.90;40.90;;;;;;5068000;28;20221;-67
2022/11/02 06:38:22;;;;;;;2.03;1.53;;;21.90;40.90;;;;;;5060867;28;20221;-70
2022/11/02 06:40:53;;;;;;;2.30;1.33;;;21.90;40.80;;;;;;5076082;28;20225;-69
2022/11/02 06:43:19;;;;;;;1.83;1.27;;;21.80;40.70;;;;;;5066431;28;20454;-70
2022/11/02 06:45:45;;;;;;;1.93;1.47;;;21.90;40.80;;;;;;5082401;28;20457;-69
2022/11/02 06:48:11;;;;;;;1.20;1.10;;;21.90;40.80;;;;;;5082784;28;20278;-69
2022/11/02 06:50:36;;;;;;;1.47;1.20;;;21.90;40.70;;;;;;5060043;28;20596;-69
2022/11/02 06:53:02;;;;;;;1.70;1.30;;;21.90;41.50;;;;;;5079985;28;20256;-69
2022/11/02 06:55:28;;;;;;;1.57;1.07;;;21.80;40.60;;;;;;5074417;28;20232;-68
2022/11/02 06:57:53;;;;;;;1.40;1.27;;;21.80;40.50;;;;;;5075249;28;20244;-70
2022/11/02 07:00:19;;;;;;;1.23;1.10;;;21.80;40.60;;;;;;5079628;28;20292;-69
2022/11/02 07:02:46;;;;;;;1.20;1.10;;;21.80;40.40;;;;;;5072593;28;20244;-69
2022/11/02 07:05:12;;;;;;;1.90;1.13;;;21.80;40.50;;;;;;5079401;28;20553;-71
2022/11/02 07:07:37;;;;;;;1.30;1.20;;;21.80;40.40;;;;;;5072328;27;20530;-70
2022/11/02 07:10:03;;;;;;;2.83;1.20;;;21.90;40.50;;;;;;5079360;28;20212;-71
2022/11/02 07:12:31;;;;;;;2.53;1.73;;;21.90;40.40;;;;;;5078783;28;20670;-70
2022/11/02 07:14:56;;;;;;;2.40;1.67;;;21.90;40.50;;;;;;5074560;28;20333;-69
2022/11/02 07:17:22;;;;;;;2.47;1.57;;;21.90;40.60;;;;;;5066733;28;20564;-70
2022/11/02 07:19:47;;;;;;;1.70;1.60;;;22.00;40.70;;;;;;5068424;28;21008;-71
2022/11/02 07:22:13;;;;;;;2.47;1.30;;;22.00;40.60;;;;;;5070173;28;20917;-71
2022/11/02 07:24:38;;;;;;;2.63;1.30;;;22.00;40.60;;;;;;5069329;28;20243;-70
2022/11/02 07:27:04;;;;;;;2.40;1.30;;;22.00;40.60;;;;;;5065529;28;20275;-71
2022/11/02 07:29:29;;;;;;;1.20;1.10;;;22.00;40.50;;;;;;5068571;28;20217;-71
2022/11/02 07:31:55;;;;;;;1.87;1.30;;;22.00;40.60;;;;;;5065059;28;20225;-71
2022/11/02 07:34:21;;;;;;;1.60;1.40;;;22.00;40.70;;;;;;5058413;28;20268;-70
2022/11/02 07:36:46;;;;;;;5.17;1.57;;;22.00;40.60;;;;;;5056721;28;20723;-70
2022/11/02 07:39:12;;;;;;;1.80;1.20;;;22.00;40.60;;;;;;5066746;28;20220;-71
2022/11/02 07:41:37;;;;;;;1.60;1.27;;;22.00;41.20;;;;;;5061477;28;20659;-70
2022/11/02 07:44:03;;;;;;;2.33;1.10;;;22.00;40.50;;;;;;5078291;28;20265;-70
2022/11/02 07:46:28;;;;;;;1.20;1.10;;;22.00;40.40;;;;;;5061436;28;20588;-70
2022/11/02 07:48:54;;;;;;;1.67;1.17;;;22.00;40.30;;;;;;5071313;28;20802;-71
2022/11/02 07:51:20;;;;;;;1.60;1.33;;;22.00;40.30;;;;;;5068105;28;20216;-71
2022/11/02 07:53:45;;;;;;;2.37;1.20;;;22.00;40.30;;;;;;5071377;28;20299;-71
2022/11/02 07:56:11;;;;;;;1.90;1.70;;;22.00;40.30;;;;;;5066024;28;20217;-70
2022/11/02 07:58:36;;;;;;;2.40;1.33;;;22.00;40.20;;;;;;5066443;28;20697;-70
2022/11/02 08:01:02;;;;;;;1.83;1.13;;;22.00;40.20;;;;;;5069398;28;20233;-71
2022/11/02 08:03:28;;;;;;;1.77;1.30;;;22.00;40.20;;;;;;5069859;28;20549;-70
2022/11/02 08:05:54;;;;;;;2.23;1.40;;;22.00;40.20;;;;;;5066549;28;20217;-71
2022/11/02 08:08:23;;;;;;;1.57;1.43;;;22.00;40.10;;;;;;5065547;28;20679;-71
2022/11/02 08:10:50;;;;;;;2.17;1.30;;;22.00;40.10;;;;;;5068276;28;20209;-71
2022/11/02 08:13:22;;;;;;;1.10;0.90;;;22.00;40.00;;;;;;5066230;28;20978;-70
2022/11/02 08:15:52;;;;;;;1.63;1.20;;;22.00;40.00;;;;;;5075340;28;20510;-70
2022/11/02 08:18:22;;;;;;;2.10;1.10;;;22.00;40.00;;;;;;5069359;28;20462;-71
2022/11/02 08:20:48;;;;;;;3.00;1.43;;;21.90;40.00;;;;;;5072275;28;20445;-71
2022/11/02 08:23:16;;;;;;;1.30;1.10;;;22.00;40.00;;;;;;5073515;28;20489;-70
2022/11/02 08:25:44;;;;;;;2.80;1.10;;;22.00;39.90;;;;;;5074366;28;21350;-71
2022/11/02 08:28:13;;;;;;;2.37;1.23;;;21.90;39.80;;;;;;5072125;28;20959;-71
2022/11/02 08:30:39;;;;;;;1.20;1.10;;;21.90;39.80;;;;;;5066537;28;20928;-70
2022/11/02 08:33:07;;;;;;;1.60;1.27;;;22.00;39.90;;;;;;5066469;28;20453;-70
2022/11/02 08:35:33;;;;;;;2.00;1.50;;;21.90;39.70;;;;;;5071996;28;20913;-70
2022/11/02 08:37:59;;;;;;;1.27;1.00;;;22.00;39.80;;;;;;5072111;28;20557;-70
2022/11/02 08:40:25;;;;;;;1.80;1.20;;;22.00;39.80;;;;;;5075902;28;20445;-70
2022/11/02 08:43:11;;;;;;;1.70;1.33;;;22.00;39.80;;;;;;5066164;28;20744;-70
2022/11/02 08:45:38;;;;;;;1.40;1.23;;;22.00;39.90;;;;;;5077099;28;20532;-70
2022/11/02 08:48:05;;;;;;;1.50;1.30;;;22.00;39.80;;;;;;5078344;28;20445;-70
2022/11/02 08:50:30;;;;;;;1.67;1.17;;;22.00;39.80;;;;;;5079365;28;20484;-70
2022/11/02 08:52:56;;;;;;;1.53;1.10;;;22.00;39.70;;;;;;5077973;28;20445;-70
2022/11/02 08:55:21;;;;;;;1.30;1.20;;;22.00;39.70;;;;;;5071319;28;20272;-70
2022/11/02 08:57:49;;;;;;;1.40;1.30;;;22.00;39.70;;;;;;5077881;28;20223;-70
2022/11/02 09:00:16;;;;;;;2.90;1.10;;;22.00;39.70;;;;;;5070393;28;20229;-70
2022/11/02 09:02:42;;;;;;;1.60;1.30;;;22.00;39.70;;;;;;5075283;28;20536;-71
2022/11/02 09:05:09;;;;;;;1.87;1.00;;;22.00;39.70;;;;;;5077874;28;20444;-71
2022/11/02 09:07:35;;;;;;;1.20;1.03;;;22.00;39.70;;;;;;5072900;28;20438;-71
2022/11/02 09:10:01;;;;;;;1.60;1.30;;;22.00;39.60;;;;;;5077878;28;20450;-71
2022/11/02 09:12:26;;;;;;;2.17;1.50;;;22.00;39.60;;;;;;5079249;28;20499;-71
2022/11/02 09:14:52;;;;;;;1.73;1.20;;;22.00;39.60;;;;;;5071792;28;20243;-70
2022/11/02 09:17:17;;;;;;;2.20;1.10;;;22.00;39.60;;;;;;5074538;28;20239;-71
2022/11/02 09:19:43;;;;;;;1.37;1.00;;;22.00;39.60;;;;;;5086519;28;20220;-70
2022/11/02 09:22:08;;;;;;;1.50;1.00;;;22.00;39.60;;;;;;5076226;28;20208;-71
2022/11/02 09:24:34;;;;;;;1.30;0.93;;;22.00;39.60;;;;;;5084331;28;20216;-71
2022/11/02 09:26:59;;;;;;;1.30;1.20;;;22.00;39.60;;;;;;5084513;28;20205;-70
2022/11/02 09:29:25;;;;;;;1.27;1.17;;;22.00;39.50;;;;;;5083887;28;20224;-70
2022/11/02 09:31:50;;;;;;;1.50;1.00;;;22.00;39.50;;;;;;5079082;28;20220;-70
2022/11/02 09:34:16;;;;;;;2.90;1.30;;;22.00;39.50;;;;;;5085639;28;20252;-71
2022/11/02 09:36:41;;;;;;;1.87;1.13;;;22.00;39.50;;;;;;5085320;28;20574;-71
2022/11/02 09:39:07;;;;;;;1.50;1.40;;;22.00;39.50;;;;;;5082926;28;20220;-70
2022/11/02 09:41:42;;;;;;;2.10;1.20;;;22.00;39.40;;;;;;5080739;28;20253;-68
2022/11/02 09:44:19;;;;;;;1.90;1.10;;;22.00;39.40;;;;;;5073171;28;20216;-71
2022/11/02 09:46:45;;;;;;;1.30;1.10;;;22.00;39.40;;;;;;5079179;28;20445;-71
2022/11/02 09:49:15;;;;;;;1.63;1.00;;;22.00;39.40;;;;;;5070198;27;20466;-70
2022/11/02 09:51:48;;;;;;;1.83;1.47;;;22.00;39.50;;;;;;5070348;28;20913;-70
2022/11/02 09:54:32;;;;;;;4.30;2.17;;;22.00;39.40;;;;;;5083000;27;20506;-69
2022/11/02 09:57:03;;;;;;;5.17;1.53;;;22.00;39.40;;;;;;5077386;28;20466;-70
2022/11/02 09:59:28;;;;;;;3.00;1.10;;;22.00;39.50;;;;;;5074588;28;20460;-70
2022/11/02 10:02:04;;;;;;;3.37;1.40;;;22.00;39.60;;;;;;5080544;28;20526;-70
2022/11/02 10:05:03;;;;;;;3.93;1.00;;;22.00;39.60;;;;;;5074520;27;20273;-70
2022/11/02 10:07:44;;;;;;;1.80;1.07;;;22.00;39.70;;;;;;5080439;28;20884;-69
2022/11/02 10:10:32;;;;;;;1.43;1.23;;;22.00;39.80;;;;;;5085580;28;21054;-69
2022/11/02 10:13:18;;;;;;;2.27;1.30;;;22.00;39.90;;;;;;5081055;28;20469;-69
2022/11/02 10:15:58;;;;;;;2.33;1.33;;;22.00;40.10;;;;;;5082570;28;20983;-69
2022/11/02 10:18:25;;;;;;;2.30;1.27;;;22.00;40.10;;;;;;5077742;28;20593;-69
2022/11/02 10:21:09;;;;;;;1.63;1.30;;;22.00;40.20;;;;;;5080627;28;21048;-69
2022/11/02 10:23:48;;;;;;;3.93;1.30;;;22.00;40.20;;;;;;5078015;28;20453;-70
2022/11/02 10:26:28;;;;;;;1.37;1.13;;;22.00;40.30;;;;;;5075689;28;20453;-70
2022/11/02 10:29:22;;;;;;;1.40;1.20;;;22.00;40.50;;;;;;5079195;28;20468;-69
2022/11/02 10:31:47;;;;;;;2.03;1.10;;;22.00;40.60;;;;;;5069890;28;20449;-69
2022/11/02 10:34:26;;;;;;;1.10;0.90;;;22.00;40.70;;;;;;5068155;28;20979;-70
2022/11/02 10:37:13;;;;;;;1.80;1.40;;;22.00;40.70;;;;;;5078433;28;20256;-69
2022/11/02 10:40:01;;;;;;;1.40;1.10;;;22.00;40.70;;;;;;5078888;28;20502;-70
2022/11/02 10:42:42;;;;;;;1.10;1.00;;;22.00;41.00;;;;;;5078524;28;20468;-70
2022/11/02 10:45:29;;;;;;;1.20;0.90;;;22.00;41.00;;;;;;5078303;28;20500;-70
2022/11/02 10:48:22;;;;;;;1.13;1.00;;;22.00;41.00;;;;;;5077392;28;20449;-69
2022/11/02 10:51:04;;;;;;;1.33;0.90;;;22.00;41.00;;;;;;5066596;28;20483;-70
2022/11/02 10:53:35;;;;;;;2.10;1.20;;;22.00;41.00;;;;;;5075642;28;20493;-69
2022/11/02 10:56:15;;;;;;;1.17;0.87;;;22.00;41.00;;;;;;5081824;28;20453;-70
2022/11/02 10:58:59;;;;;;;1.00;0.80;;;22.00;41.00;;;;;;5082664;28;20501;-69
2022/11/02 11:01:27;;;;;;;1.10;0.93;;;22.00;41.00;;;;;;5074664;28;20588;-69
2022/11/02 11:04:16;;;;;;;1.03;0.80;;;22.00;41.00;;;;;;5081407;28;20461;-69
2022/11/02 11:06:42;;;;;;;1.57;1.10;;;22.00;41.00;;;;;;5080129;28;20449;-70
2022/11/02 11:09:18;;;;;;;1.23;1.00;;;22.00;41.00;;;;;;5075321;28;21010;-69
2022/11/02 11:12:02;;;;;;;1.00;0.90;;;22.00;41.00;;;;;;5075185;28;20749;-69
2022/11/02 11:14:31;;;;;;;2.23;1.20;;;22.00;41.00;;;;;;5073724;28;20502;-69
2022/11/02 11:16:59;;;;;;;1.50;1.00;;;22.00;41.00;;;;;;5080736;28;20827;-70
2022/11/02 11:19:34;;;;;;;1.30;1.03;;;22.00;41.00;;;;;;5078498;28;20497;-70
2022/11/02 11:22:01;;;;;;;1.37;1.27;;;22.00;41.00;;;;;;5079727;28;20456;-70
2022/11/02 11:24:33;;;;;;;1.17;1.07;;;22.00;41.00;;;;;;5077447;28;20516;-70
2022/11/02 11:27:20;;;;;;;1.30;0.90;;;22.00;41.00;;;;;;5079359;28;20450;-69
2022/11/02 11:29:54;;;;;;;1.93;1.10;;;22.00;41.00;;;;;;5080857;28;20458;-69
2022/11/02 11:32:28;;;;;;;0.80;0.73;;;22.00;41.00;;;;;;5078677;28;20457;-70
2022/11/02 11:34:59;;;;;;;1.60;1.00;;;22.00;41.00;;;;;;5077378;28;20473;-69
2022/11/02 11:37:25;;;;;;;1.00;0.90;;;22.00;41.10;;;;;;5058509;28;20569;-70
2022/11/02 11:40:18;;;;;;;1.20;0.80;;;22.10;41.10;;;;;;5077586;28;20975;-70
2022/11/02 11:42:44;;;;;;;1.50;0.90;;;22.10;41.10;;;;;;5062568;28;20851;-70
2022/11/02 11:45:31;;;;;;;1.10;1.00;;;22.10;41.10;;;;;;5070584;28;20575;-70
2022/11/02 11:48:21;;;;;;;1.00;0.90;;;22.10;41.10;;;;;;5074495;28;20886;-70
2022/11/02 11:50:48;;;;;;;1.20;1.00;;;22.10;41.20;;;;;;5047259;28;20766;-71
2022/11/02 11:53:19;;;;;;;1.07;0.90;;;22.00;41.30;;;;;;5074551;28;20525;-70
2022/11/02 11:55:48;;;;;;;1.20;0.90;;;22.10;41.30;;;;;;5074298;28;20522;-71
2022/11/02 11:58:31;;;;;;;1.13;0.97;;;22.00;41.30;;;;;;5088716;28;20467;-71
2022/11/02 12:01:09;;;;;;;1.50;1.10;;;22.10;41.30;;;;;;5078584;28;20445;-71
2022/11/02 12:03:54;;;;;;;1.20;0.80;;;22.10;41.40;;;;;;5076035;28;20499;-70
2022/11/02 12:06:31;;;;;;;1.13;1.03;;;22.10;41.40;;;;;;5073609;28;20460;-71
2022/11/02 12:09:19;;;;;;;1.80;0.90;;;22.10;41.50;;;;;;5079705;28;20465;-70
2022/11/02 12:11:59;;;;;;;1.37;0.90;;;22.10;41.50;;;;;;5075785;28;20468;-71
2022/11/02 12:14:45;;;;;;;1.50;1.20;;;22.10;41.60;;;;;;5078456;28;20993;-71
2022/11/02 12:17:27;;;;;;;1.27;1.00;;;22.00;41.50;;;;;;5076062;28;20455;-72
2022/11/02 12:20:05;;;;;;;1.50;0.90;;;22.00;41.60;;;;;;5070273;28;20456;-72
2022/11/02 12:22:54;;;;;;;1.17;1.00;;;22.00;41.60;;;;;;5079120;28;20471;-72
2022/11/02 12:25:47;;;;;;;1.30;1.03;;;22.00;41.60;;;;;;5071230;28;20523;-72
2022/11/02 12:28:39;;;;;;;1.40;1.20;;;22.00;41.60;;;;;;5072323;28;20448;-72
2022/11/02 12:31:35;;;;;;;1.40;1.30;;;22.00;41.70;;;;;;5076703;28;20458;-72
2022/11/02 12:34:37;;;;;;;0.80;0.73;;;22.00;41.70;;;;;;5079809;28;20548;-71
2022/11/02 12:37:03;;;;;;;1.00;0.90;;;22.00;41.70;;;;;;5076194;28;20468;-72
2022/11/02 12:39:31;;;;;;;1.60;1.07;;;22.00;41.80;;;;;;5077671;28;20445;-72
2022/11/02 12:42:21;;;;;;;0.80;0.80;;;22.00;41.80;;;;;;5077378;28;20216;-72
2022/11/02 12:44:57;;;;;;;1.00;0.90;;;22.00;42.60;;;;;;5063124;28;20799;-72
2022/11/02 12:47:47;;;;;;;1.80;0.90;;;22.00;42.60;;;;;;5073766;28;20465;-69
2022/11/02 12:50:26;;;;;;;1.17;1.07;;;22.00;41.90;;;;;;5076133;28;20536;-69
2022/11/02 12:53:01;;;;;;;2.07;1.10;;;22.00;41.90;;;;;;5075964;28;21014;-69
2022/11/02 12:55:34;;;;;;;3.53;1.17;;;22.10;42.00;;;;;;5075989;28;20470;-68
2022/11/02 12:58:05;;;;;;;1.43;1.17;;;22.10;42.00;;;;;;5074336;28;20980;-70
2022/11/02 13:00:34;;;;;;;1.53;1.40;;;22.10;41.90;;;;;;5071731;28;20583;-70
2022/11/02 13:03:00;;;;;;;2.07;1.10;;;22.20;41.90;;;;;;5088924;28;20976;-71
2022/11/02 13:05:37;;;;;;;1.53;1.33;;;22.20;41.90;;;;;;5070562;28;20454;-70
2022/11/02 13:08:12;;;;;;;1.83;1.67;;;22.20;41.90;;;;;;5077691;28;20270;-70
2022/11/02 13:10:48;;;;;;;2.03;1.40;;;22.20;41.80;;;;;;5073284;28;20499;-70
2022/11/02 13:13:19;;;;;;;1.83;1.27;;;22.20;41.90;;;;;;5067426;28;20492;-70
2022/11/02 13:15:46;;;;;;;1.93;1.30;;;22.30;42.00;;;;;;5079768;28;20497;-70
2022/11/02 13:18:19;;;;;;;1.60;1.20;;;22.30;42.00;;;;;;5079264;28;20539;-70
2022/11/02 13:20:54;;;;;;;1.50;1.37;;;22.30;42.00;;;;;;5077199;28;20979;-70
2022/11/02 13:23:55;;;;;;;1.40;1.30;;;22.30;42.00;;;;;;5078371;28;21008;-70